createdAt,value
2023-05-20T00:01:18.193Z,95840.09
2023-05-20T00:03:53.569Z,95843.50
2023-05-20T00:06:41.216Z,95840.94
2023-05-20T00:09:14.347Z,95835.84
2023-05-20T00:12:01.221Z,95835.00
2023-05-20T00:14:34.401Z,95831.56
2023-05-20T00:17:21.249Z,95834.13
2023-05-20T00:19:54.352Z,95827.31
2023-05-20T00:22:41.216Z,95827.31
2023-05-20T00:25:15.431Z,95836.66
2023-05-20T00:28:02.221Z,95840.94
2023-05-20T00:30:42.252Z,95840.94
2023-05-20T00:33:36.224Z,95840.06
2023-05-20T00:36:23.248Z,95836.66
2023-05-20T00:38:56.371Z,95834.97
2023-05-20T00:41:43.195Z,95830.72
2023-05-20T00:44:18.041Z,95830.69
2023-05-20T00:47:05.217Z,95830.69
2023-05-20T00:49:46.178Z,95834.09
2023-05-20T00:52:43.249Z,95829.84
2023-05-20T00:55:30.264Z,95830.72
2023-05-20T00:58:03.390Z,95833.28
2023-05-20T01:00:50.242Z,95829.00
2023-05-20T01:03:24.612Z,95825.59
2023-05-20T01:06:11.329Z,95820.47
2023-05-20T01:08:44.424Z,95815.38
2023-05-20T01:11:39.298Z,95814.53
2023-05-20T01:14:15.741Z,95811.13
2023-05-20T01:17:05.255Z,95807.69
2023-05-20T01:19:54.220Z,95809.41
2023-05-20T01:22:51.240Z,95811.13
2023-05-20T01:25:38.258Z,95813.66
2023-05-20T01:28:17.733Z,95819.63
2023-05-20T01:31:07.259Z,95815.38
2023-05-20T01:33:50.230Z,95818.75
2023-05-20T01:36:46.247Z,95817.06
2023-05-20T01:39:33.259Z,95811.94
2023-05-20T01:42:14.259Z,95810.25
2023-05-20T01:45:08.252Z,95817.94
2023-05-20T01:47:55.269Z,95810.25
2023-05-20T01:50:28.351Z,95808.53
2023-05-20T01:53:22.229Z,95798.28
2023-05-20T01:56:16.253Z,95800.00
2023-05-20T01:59:10.263Z,95793.19
2023-05-20T02:02:04.353Z,95785.50
2023-05-20T02:04:58.241Z,95789.78
2023-05-20T02:07:38.285Z,95789.75
2023-05-20T02:10:32.257Z,95786.34
2023-05-20T02:13:19.257Z,95793.19
2023-05-20T02:15:52.400Z,95794.03
2023-05-20T02:18:39.303Z,95800.84
2023-05-20T02:21:12.380Z,95798.28
2023-05-20T02:23:59.268Z,95794.91
2023-05-20T02:26:32.676Z,95799.13
2023-05-20T02:29:19.269Z,95804.28
2023-05-20T02:31:52.490Z,95799.16
2023-05-20T02:34:39.310Z,95802.56
2023-05-20T02:37:19.282Z,95806.84
2023-05-20T02:40:06.301Z,95807.69
2023-05-20T02:42:39.511Z,95807.69
2023-05-20T02:45:26.277Z,95809.38
2023-05-20T02:47:59.506Z,95814.47
2023-05-20T02:50:47.276Z,95802.56
2023-05-20T02:53:27.279Z,95807.66
2023-05-20T02:56:08.293Z,95804.25
2023-05-20T02:58:55.271Z,95805.09
2023-05-20T03:01:49.312Z,95805.94
2023-05-20T03:04:36.308Z,95807.66
2023-05-20T03:07:09.414Z,95808.50
2023-05-20T03:09:56.285Z,95808.47
2023-05-20T03:12:29.405Z,95811.88
2023-05-20T03:15:16.277Z,95806.75
2023-05-20T03:17:49.458Z,95806.75
2023-05-20T03:20:36.342Z,95814.44
2023-05-20T03:23:11.160Z,95816.97
2023-05-20T03:25:58.330Z,95811.00
2023-05-20T03:28:31.430Z,95824.63
2023-05-20T03:31:18.372Z,95815.22
2023-05-20T03:33:51.407Z,95816.06
2023-05-20T03:36:41.359Z,95816.91
2023-05-20T03:39:24.304Z,95822.00
2023-05-20T03:42:12.304Z,95820.28
2023-05-20T03:44:52.317Z,95821.16
2023-05-20T03:47:46.367Z,95824.53
2023-05-20T03:50:33.289Z,95826.25
2023-05-20T03:53:06.589Z,95834.72
2023-05-20T03:55:53.329Z,95837.28
2023-05-20T03:58:26.456Z,95833.84
2023-05-20T04:01:13.323Z,95837.22
2023-05-20T04:03:47.519Z,95834.72
2023-05-20T04:06:34.312Z,95839.81
2023-05-20T04:09:14.319Z,95832.94
2023-05-20T04:12:08.312Z,95825.25
2023-05-20T04:15:02.345Z,95826.94
2023-05-20T04:17:57.383Z,95831.22
2023-05-20T04:20:51.330Z,95837.16
2023-05-20T04:23:45.294Z,95834.56
2023-05-20T04:26:32.338Z,95829.44
2023-05-20T04:29:12.318Z,95838.81
2023-05-20T04:32:06.384Z,95838.78
2023-05-20T04:34:53.348Z,95837.91
2023-05-20T04:37:26.462Z,95838.75
2023-05-20T04:40:13.341Z,95841.28
2023-05-20T04:42:46.403Z,95846.38
2023-05-20T04:45:33.552Z,95845.53
2023-05-20T04:48:07.518Z,95844.63
2023-05-20T04:50:55.385Z,95844.59
2023-05-20T04:53:37.332Z,95847.19
2023-05-20T04:56:31.334Z,95842.00
2023-05-20T04:59:18.334Z,95851.41
2023-05-20T05:01:58.375Z,95846.25
2023-05-20T05:04:52.390Z,95843.66
2023-05-20T05:07:39.346Z,95847.84
2023-05-20T05:10:19.351Z,95838.44
2023-05-20T05:13:06.367Z,95844.34
2023-05-20T05:15:42.481Z,95848.56
2023-05-20T05:18:29.345Z,95848.50
2023-05-20T05:21:10.433Z,95846.72
2023-05-20T05:23:58.359Z,95861.19
2023-05-20T05:26:31.484Z,95856.88
2023-05-20T05:29:18.357Z,95853.44
2023-05-20T05:31:51.493Z,95855.13
2023-05-20T05:34:38.336Z,95861.03
2023-05-20T05:37:11.470Z,95854.13
2023-05-20T05:39:58.407Z,95854.13
2023-05-20T05:42:32.452Z,95851.50
2023-05-20T05:45:19.360Z,95857.41
2023-05-20T05:47:52.467Z,95853.09
2023-05-20T05:50:39.368Z,95855.59
2023-05-20T05:53:34.362Z,95858.06
2023-05-20T05:56:21.368Z,95857.97
2023-05-20T05:59:01.380Z,95861.31
2023-05-20T06:01:55.427Z,95854.34
2023-05-20T06:04:42.349Z,95858.56
2023-05-20T06:07:15.458Z,95857.63
2023-05-20T06:10:02.384Z,95855.88
2023-05-20T06:12:42.371Z,95855.88
2023-05-20T06:15:36.651Z,95852.41
2023-05-20T06:18:23.365Z,95847.22
2023-05-20T06:21:13.401Z,95852.22
2023-05-20T06:24:07.398Z,95855.53
2023-05-20T06:26:56.350Z,95852.84
2023-05-20T06:29:37.415Z,95859.44
2023-05-20T06:32:31.396Z,95851.50
2023-05-20T06:35:18.385Z,95857.25
2023-05-20T06:37:51.545Z,95858.78
2023-05-20T06:40:38.392Z,95862.16
2023-05-20T06:43:11.465Z,95865.44
2023-05-20T06:45:58.395Z,95864.38
2023-05-20T06:48:38.405Z,95860.75
2023-05-20T06:51:25.400Z,95856.16
2023-05-20T06:54:01.492Z,95853.34
2023-05-20T06:56:48.455Z,95853.16
2023-05-20T06:59:21.485Z,95847.63
2023-05-20T07:02:08.463Z,95854.13
2023-05-20T07:04:48.425Z,95844.22
2023-05-20T07:07:42.451Z,95839.25
2023-05-20T07:10:36.491Z,95835.75
2023-05-20T07:13:30.413Z,95838.91
2023-05-20T07:16:17.464Z,95832.47
2023-05-20T07:18:50.633Z,95826.94
2023-05-20T07:21:37.426Z,95827.31
2023-05-20T07:24:10.508Z,95824.09
2023-05-20T07:26:57.401Z,95824.38
2023-05-20T07:29:40.406Z,95823.47
2023-05-20T07:32:34.442Z,95818.88
2023-05-20T07:35:21.404Z,95819.44
2023-05-20T07:37:54.527Z,95817.00
2023-05-20T07:40:43.424Z,95818.16
2023-05-20T07:43:16.512Z,95816.88
2023-05-20T07:46:03.479Z,95812.34
2023-05-20T07:48:36.507Z,95816.88
2023-05-20T07:51:23.400Z,95814.53
2023-05-20T07:54:06.416Z,95807.53
2023-05-20T07:56:53.420Z,95805.38
2023-05-20T07:59:26.543Z,95806.81
2023-05-20T08:02:13.454Z,95799.38
2023-05-20T08:04:46.544Z,95796.13
2023-05-20T08:07:33.451Z,95789.66
2023-05-20T08:10:13.431Z,95796.09
2023-05-20T08:13:00.424Z,95793.69
2023-05-20T08:15:40.424Z,95794.59
2023-05-20T08:18:34.439Z,95786.16
2023-05-20T08:21:22.442Z,95781.69
2023-05-20T08:24:02.455Z,95777.59
2023-05-20T08:26:56.432Z,95779.78
2023-05-20T08:29:43.433Z,95785.19
2023-05-20T08:32:23.577Z,95778.53
2023-05-20T08:35:11.449Z,95785.53
2023-05-20T08:37:51.476Z,95778.13
2023-05-20T08:40:41.442Z,95774.56
2023-05-20T08:43:14.547Z,95778.69
2023-05-20T08:46:01.478Z,95776.50
2023-05-20T08:48:37.037Z,95777.50
2023-05-20T08:51:27.461Z,95779.50
2023-05-20T08:54:01.095Z,95773.25
2023-05-20T08:56:48.457Z,95772.81
2023-05-20T08:59:23.572Z,95769.44
2023-05-20T09:02:10.466Z,95769.72
2023-05-20T09:04:44.615Z,95767.47
2023-05-20T09:07:35.445Z,95766.78
2023-05-20T09:10:08.713Z,95766.56
2023-05-20T09:12:56.487Z,95765.84
2023-05-20T09:15:29.580Z,95760.38
2023-05-20T09:18:16.488Z,95763.94
2023-05-20T09:20:56.478Z,95768.31
2023-05-20T09:23:44.485Z,95758.78
2023-05-20T09:26:17.567Z,95755.41
2023-05-20T09:29:04.494Z,95758.09
2023-05-20T09:31:40.836Z,95745.59
2023-05-20T09:34:27.502Z,95756.47
2023-05-20T09:37:02.704Z,95758.69
2023-05-20T09:40:20.480Z,95745.97
2023-05-20T09:43:15.419Z,95743.28
2023-05-20T09:46:03.493Z,95743.94
2023-05-20T09:48:37.814Z,95741.50
2023-05-20T09:51:24.495Z,95741.00
2023-05-20T09:54:06.507Z,95746.47
2023-05-20T09:57:01.496Z,95746.09
2023-05-20T09:59:56.480Z,95745.84
2023-05-20T10:02:44.599Z,95748.31
2023-05-20T10:05:46.717Z,95740.03
2023-05-20T10:09:03.553Z,95742.34
2023-05-20T10:11:55.520Z,95740.88
2023-05-20T10:15:13.506Z,95738.91
2023-05-20T10:18:16.518Z,95739.44
2023-05-20T10:20:57.653Z,95731.34
2023-05-20T10:23:44.539Z,95732.88
2023-05-20T10:26:24.522Z,95721.00
2023-05-20T10:29:25.521Z,95728.19
2023-05-20T10:31:59.691Z,95736.81
2023-05-20T10:34:54.531Z,95732.06
2023-05-20T10:37:38.518Z,95731.69
2023-05-20T10:40:26.529Z,95731.41
2023-05-20T10:43:01.173Z,95733.97
2023-05-20T10:45:58.546Z,95729.34
2023-05-20T10:48:39.593Z,95729.66
2023-05-20T10:51:35.532Z,95732.63
2023-05-20T10:54:29.533Z,95736.06
2023-05-20T10:57:17.530Z,95730.66
2023-05-20T10:59:57.546Z,95721.25
2023-05-20T11:02:54.624Z,95719.91
2023-05-20T11:05:41.537Z,95711.88
2023-05-20T11:08:28.874Z,95710.47
2023-05-20T11:11:25.556Z,95706.31
2023-05-20T11:14:12.560Z,95700.91
2023-05-20T11:16:53.614Z,95706.75
2023-05-20T11:19:47.594Z,95689.88
2023-05-20T11:22:41.554Z,95692.09
2023-05-20T11:25:31.565Z,95690.41
2023-05-20T11:28:06.101Z,95689.91
2023-05-20T11:30:52.565Z,95713.16
2023-05-20T11:33:39.594Z,95695.50
2023-05-20T11:36:28.256Z,95688.81
2023-05-20T11:39:11.547Z,95688.31
2023-05-20T11:42:05.579Z,95693.50
2023-05-20T11:45:01.134Z,95685.16
2023-05-20T11:47:48.710Z,95684.94
2023-05-20T11:50:25.680Z,95686.28
2023-05-20T11:53:30.585Z,95676.06
2023-05-20T11:56:17.610Z,95678.16
2023-05-20T11:58:50.747Z,95675.88
2023-05-20T12:01:48.620Z,95682.59
2023-05-20T12:04:21.974Z,95676.34
2023-05-20T12:07:10.605Z,95666.38
2023-05-20T12:09:43.693Z,95665.59
2023-05-20T12:12:33.596Z,95659.56
2023-05-20T12:15:07.154Z,95654.69
2023-05-20T12:17:58.621Z,95658.25
2023-05-20T12:20:40.607Z,95665.69
2023-05-20T12:23:35.600Z,95663.59
2023-05-20T12:26:22.602Z,95657.59
2023-05-20T12:28:55.709Z,95649.53
2023-05-20T12:31:42.627Z,95656.66
2023-05-20T12:34:22.625Z,95660.00
2023-05-20T12:37:16.591Z,95660.22
2023-05-20T12:40:03.609Z,95659.78
2023-05-20T12:42:36.760Z,95658.53
2023-05-20T12:45:23.652Z,95656.53
2023-05-20T12:47:57.800Z,95651.13
2023-05-20T12:50:44.610Z,95642.88
2023-05-20T12:53:17.722Z,95636.09
2023-05-20T12:56:06.095Z,95636.75
2023-05-20T12:58:39.804Z,95633.47
2023-05-20T13:01:26.708Z,95637.91
2023-05-20T13:04:06.609Z,95625.13
2023-05-20T13:06:53.629Z,95637.53
2023-05-20T13:09:26.851Z,95638.88
2023-05-20T13:12:13.640Z,95629.03
2023-05-20T13:14:46.876Z,95625.06
2023-05-20T13:17:33.678Z,95617.44
2023-05-20T13:20:13.639Z,95614.06
2023-05-20T13:23:07.669Z,95615.72
2023-05-20T13:25:54.650Z,95612.22
2023-05-20T13:28:28.181Z,95611.34
2023-05-20T13:31:14.682Z,95618.41
2023-05-20T13:33:47.795Z,95601.69
2023-05-20T13:36:34.635Z,95595.13
2023-05-20T13:39:14.646Z,95592.19
2023-05-20T13:42:09.736Z,95592.44
2023-05-20T13:45:03.667Z,95596.31
2023-05-20T13:47:50.676Z,95589.66
2023-05-20T13:50:23.794Z,95597.41
2023-05-20T13:53:19.638Z,95592.84
2023-05-20T13:56:15.630Z,95607.16
2023-05-20T13:59:02.671Z,95587.31
2023-05-20T14:01:40.466Z,95592.19
2023-05-20T14:04:28.715Z,95592.84
2023-05-20T14:07:10.022Z,95592.00
2023-05-20T14:10:03.673Z,95592.34
2023-05-20T14:12:54.867Z,95591.69
2023-05-20T14:15:30.529Z,95589.34
2023-05-20T14:18:19.994Z,95590.44
2023-05-20T14:20:54.854Z,95588.84
2023-05-20T14:23:41.677Z,95586.41
2023-05-20T14:26:21.677Z,95586.47
2023-05-20T14:29:08.654Z,95579.56
2023-05-20T14:31:41.857Z,95589.16
2023-05-20T14:34:28.716Z,95592.72
2023-05-20T14:37:14.750Z,95587.56
2023-05-20T14:40:01.696Z,95589.66
2023-05-20T14:42:34.871Z,95586.22
2023-05-20T14:45:21.688Z,95581.00
2023-05-20T14:47:55.017Z,95582.69
2023-05-20T14:50:41.669Z,95576.56
2023-05-20T14:53:14.812Z,95583.63
2023-05-20T14:56:01.685Z,95577.56
2023-05-20T14:58:34.810Z,95578.34
2023-05-20T15:01:21.720Z,95580.25
2023-05-20T15:04:01.710Z,95576.06
2023-05-20T15:06:55.699Z,95574.78
2023-05-20T15:09:44.775Z,95572.44
2023-05-20T15:12:17.841Z,95563.25
2023-05-20T15:15:07.709Z,95555.81
2023-05-20T15:17:47.704Z,95554.41
2023-05-20T15:20:42.007Z,95554.72
2023-05-20T15:23:35.794Z,95560.09
2023-05-20T15:26:22.722Z,95552.53
2023-05-20T15:28:55.915Z,95550.81
2023-05-20T15:31:42.724Z,95547.38
2023-05-20T15:34:15.892Z,95542.13
2023-05-20T15:37:02.727Z,95541.94
2023-05-20T15:39:35.866Z,95539.03
2023-05-20T15:42:24.749Z,95541.44
2023-05-20T15:45:04.731Z,95540.28
2023-05-20T15:48:00.031Z,95544.31
2023-05-20T15:50:46.737Z,95540.69
2023-05-20T15:53:28.730Z,95536.09
2023-05-20T15:56:24.746Z,95530.78
2023-05-20T15:59:11.717Z,95535.03
2023-05-20T16:01:44.892Z,95534.78
2023-05-20T16:04:31.908Z,95530.94
2023-05-20T16:07:04.880Z,95541.88
2023-05-20T16:09:51.722Z,95562.53
2023-05-20T16:12:24.885Z,95547.97
2023-05-20T16:15:11.738Z,95549.00
2023-05-20T16:17:46.108Z,95549.44
2023-05-20T16:20:32.915Z,95557.50
2023-05-20T16:23:07.524Z,95554.59
2023-05-20T16:25:54.756Z,95546.31
2023-05-20T16:28:27.889Z,95553.50
2023-05-20T16:31:14.789Z,95549.31
2023-05-20T16:33:54.822Z,95550.13
2023-05-20T16:36:48.767Z,95550.03
2023-05-20T16:39:42.763Z,95555.34
2023-05-20T16:42:29.807Z,95554.22
2023-05-20T16:45:02.875Z,95555.69
2023-05-20T16:47:49.890Z,95555.56
2023-05-20T16:50:29.789Z,95552.00
2023-05-20T16:53:16.801Z,95561.19
2023-05-20T16:56:12.661Z,95551.28
2023-05-20T16:58:59.836Z,95550.84
2023-05-20T17:01:39.886Z,95547.81
2023-05-20T17:04:33.839Z,95552.41
2023-05-20T17:07:20.826Z,95550.22
2023-05-20T17:10:00.870Z,95553.19
2023-05-20T17:12:54.822Z,95564.00
2023-05-20T17:15:48.819Z,95563.44
2023-05-20T17:18:42.854Z,95566.34
2023-05-20T17:21:29.803Z,95557.19
2023-05-20T17:24:02.957Z,95569.56
2023-05-20T17:26:50.833Z,95561.25
2023-05-20T17:29:30.753Z,95571.00
2023-05-20T17:32:24.837Z,95575.69
2023-05-20T17:35:19.816Z,95571.66
2023-05-20T17:38:06.761Z,95568.53
2023-05-20T17:40:39.902Z,95567.91
2023-05-20T17:43:27.817Z,95566.53
2023-05-20T17:46:10.555Z,95573.72
2023-05-20T17:49:04.838Z,95561.88
2023-05-20T17:51:58.824Z,95566.56
2023-05-20T17:54:52.841Z,95565.13
2023-05-20T17:57:39.894Z,95565.47
2023-05-20T18:00:13.992Z,95563.03
2023-05-20T18:03:03.966Z,95573.66
2023-05-20T18:05:36.986Z,95566.19
2023-05-20T18:08:25.834Z,95573.44
2023-05-20T18:11:05.868Z,95577.16
2023-05-20T18:13:52.825Z,95570.41
2023-05-20T18:16:27.169Z,95569.91
2023-05-20T18:19:13.901Z,95568.47
2023-05-20T18:21:47.975Z,95565.28
2023-05-20T18:24:34.840Z,95575.75
2023-05-20T18:27:07.968Z,95583.63
2023-05-20T18:29:55.860Z,95580.22
2023-05-20T18:32:35.949Z,95588.19
2023-05-20T18:35:29.867Z,95584.97
2023-05-20T18:38:16.827Z,95583.31
2023-05-20T18:40:50.120Z,95592.13
2023-05-20T18:43:36.880Z,95598.28
2023-05-20T18:46:10.006Z,95598.47
2023-05-20T18:48:56.847Z,95598.63
2023-05-20T18:51:33.244Z,95597.97
2023-05-20T18:54:28.586Z,95596.38
2023-05-20T18:57:15.861Z,95602.63
2023-05-20T18:59:48.950Z,95607.16
2023-05-20T19:02:35.879Z,95601.28
2023-05-20T19:05:15.871Z,95609.97
2023-05-20T19:08:11.884Z,95608.38
2023-05-20T19:10:58.870Z,95602.56
2023-05-20T19:13:32.119Z,95615.53
2023-05-20T19:16:18.910Z,95614.72
2023-05-20T19:18:58.905Z,95618.31
2023-05-20T19:21:47.973Z,95621.94
2023-05-20T19:24:20.977Z,95616.91
2023-05-20T19:27:08.906Z,95626.47
2023-05-20T19:29:48.876Z,95620.50
2023-05-20T19:32:42.899Z,95619.78
2023-05-20T19:35:37.063Z,95622.47
2023-05-20T19:38:30.873Z,95623.44
2023-05-20T19:41:18.900Z,95626.97
2023-05-20T19:43:52.013Z,95624.41
2023-05-20T19:46:38.964Z,95625.38
2023-05-20T19:49:12.018Z,95623.75
2023-05-20T19:51:58.903Z,95630.66
2023-05-20T19:54:33.137Z,95626.44
2023-05-20T19:57:20.885Z,95628.16
2023-05-20T19:59:54.059Z,95617.03
2023-05-20T20:02:40.946Z,95617.97
2023-05-20T20:05:15.064Z,95626.59
2023-05-20T20:08:01.934Z,95629.31
2023-05-20T20:10:37.685Z,95635.41
2023-05-20T20:13:24.876Z,95641.50
2023-05-20T20:15:58.893Z,95634.69
2023-05-20T20:18:45.944Z,95636.47
2023-05-20T20:21:19.007Z,95628.84
2023-05-20T20:24:06.885Z,95628.03
2023-05-20T20:26:47.927Z,95628.09
2023-05-20T20:29:41.938Z,95627.31
2023-05-20T20:32:39.392Z,95619.72
2023-05-20T20:35:36.089Z,95623.25
2023-05-20T20:38:29.950Z,95619.06
2023-05-20T20:41:16.875Z,95615.75
2023-05-20T20:43:51.026Z,95618.44
2023-05-20T20:46:37.962Z,95615.94
2023-05-20T20:49:11.208Z,95615.16
2023-05-20T20:51:57.958Z,95609.16
2023-05-20T20:54:32.900Z,95614.41
2023-05-20T20:57:20.898Z,95615.31
2023-05-20T20:59:57.869Z,95613.72
2023-05-20T21:02:45.945Z,95619.81
2023-05-20T21:05:19.033Z,95619.00
2023-05-20T21:08:09.932Z,95620.81
2023-05-20T21:10:49.949Z,95619.22
2023-05-20T21:13:39.430Z,95623.50
2023-05-20T21:16:19.973Z,95621.00
2023-05-20T21:19:14.007Z,95623.59
2023-05-20T21:22:07.959Z,95621.13
2023-05-20T21:25:01.935Z,95613.50
2023-05-20T21:27:48.920Z,95617.81
2023-05-20T21:30:22.020Z,95616.22
2023-05-20T21:33:11.074Z,95611.19
2023-05-20T21:35:50.981Z,95619.00
2023-05-20T21:38:44.898Z,95619.84
2023-05-20T21:41:32.007Z,95611.41
2023-05-20T21:44:05.009Z,95608.03
2023-05-20T21:46:51.999Z,95606.38
2023-05-20T21:49:25.009Z,95598.00
2023-05-20T21:52:11.933Z,95597.22
2023-05-20T21:54:45.114Z,95598.25
2023-05-20T21:57:32.000Z,95588.06
2023-05-20T22:00:05.630Z,95589.84
2023-05-20T22:02:55.102Z,95593.41
2023-05-20T22:05:28.431Z,95588.34
2023-05-20T22:08:14.967Z,95582.38
2023-05-20T22:10:48.415Z,95587.56
2023-05-20T22:13:39.919Z,95586.75
2023-05-20T22:16:23.298Z,95583.34
2023-05-20T22:19:09.968Z,95583.44
2023-05-20T22:21:51.177Z,95578.38
2023-05-20T22:24:45.054Z,95577.56
2023-05-20T22:27:34.013Z,95574.16
2023-05-20T22:30:17.035Z,95576.75
2023-05-20T22:33:13.164Z,95567.47
2023-05-20T22:35:59.956Z,95576.13
2023-05-20T22:38:33.096Z,95567.66
2023-05-20T22:41:19.935Z,95569.41
2023-05-20T22:43:53.054Z,95568.59
2023-05-20T22:46:39.965Z,95573.75
2023-05-20T22:49:13.116Z,95574.66
2023-05-20T22:51:59.967Z,95575.56
2023-05-20T22:54:39.986Z,95577.34
2023-05-20T22:57:33.949Z,95577.41
2023-05-20T23:00:21.985Z,95580.00
2023-05-20T23:03:03.044Z,95577.44
2023-05-20T23:05:57.021Z,95579.19
2023-05-20T23:08:43.952Z,95570.72
2023-05-20T23:11:18.102Z,95573.31
2023-05-20T23:14:04.999Z,95564.84
2023-05-20T23:16:40.211Z,95573.38
2023-05-20T23:19:27.008Z,95575.06
2023-05-20T23:22:00.152Z,95577.63
2023-05-20T23:24:47.006Z,95571.66
2023-05-20T23:27:20.064Z,95564.06
2023-05-20T23:30:07.036Z,95555.59
2023-05-20T23:32:40.121Z,95565.03
2023-05-20T23:35:26.980Z,95568.50
2023-05-20T23:38:06.989Z,95559.06
2023-05-20T23:40:54.988Z,95562.53
2023-05-20T23:43:34.987Z,95556.59
2023-05-20T23:46:28.984Z,95560.09
2023-05-20T23:49:16.986Z,95560.16
2023-05-20T23:51:56.964Z,95556.75
2023-05-20T23:54:50.992Z,95557.59
2023-05-20T23:57:37.978Z,95555.06
